Terminal Aerodrome Forecast
Issued by NWS Wilmington, NC

Home | Current Version | Previous Version | Text Only | Print | Product List | Glossary On
Versions: 1 2 3 4 5 6 7 8 9 10 11 12 13 14 15 16 17 18 19 20
000
FTUS42 KILM 201400 CCB
TAFILM
TAF COR
KILM 201451Z 2012/2112 02012G22KT 6SM -RA BKN020 BKN040
     FM201500 03015G25KT 5SM -RA SCT008 BKN012 OVC035
      TEMPO 2015/2019 BKN008
     FM202100 01015G25KT P6SM VCSH SCT015 OVC040
     FM210200 03014G20KT P6SM VCSH BKN015 OVC040
     FM210400 03012G18KT P6SM BKN009 OVC025=

USA.gov is the U.S. government's official web portal to all federal, state and local government web resources and services.